Terminal Aerodrome Forecast
Issued by NWS Detroit/Pontiac, MI

Home | Current Version | Previous Version | Text Only | Print | Product List | Glossary On
Versions: 1 2 3 4 5 6 7 8 9 10 11 12 13
000
FTUS43 KDTX 301100
TAFFNT
TAF
KFNT 301128Z 3012/3112 18010KT P6SM SCT050 BKN100
     FM301800 20012G21KT 5SM -SHRA OVC040
      TEMPO 3019/3023 5SM -TSRA OVC025CB
     FM310200 21012KT 5SM SHRA OVC022
     FM310700 23007KT 4SM BR OVC012=

USA.gov is the U.S. government's official web portal to all federal, state and local government web resources and services.